Time;durP1;ratioP1;P1;durP2;ratioP2;P2;SDS_P1;SDS_P2;PMS_P1;PMS_P2;Temp;Humidity;BMP_temperature;BMP_pressure;BME280_temperature;BME280_humidity;BME280_pressure;Samples;Min_cycle;Max_cycle;Signal;HPM_P1;HPM_P2
2022/07/25 00:00:28;;;;;;;11.97;10.78;;;;;;;18.51;100.00;100415.24;1804470;79;21165;-92
2022/07/25 00:02:57;;;;;;;11.35;10.25;;;;;;;18.51;100.00;100412.61;1804304;79;21044;-93
2022/07/25 00:05:24;;;;;;;12.50;11.12;;;;;;;18.51;100.00;100415.24;1804201;79;20988;-92
2022/07/25 00:07:53;;;;;;;12.70;11.33;;;;;;;18.50;100.00;100409.13;1804469;79;20982;-92
2022/07/25 00:10:21;;;;;;;12.07;10.98;;;;;;;18.52;100.00;100414.22;1804476;79;21002;-92
2022/07/25 00:12:49;;;;;;;12.73;11.50;;;;;;;18.53;100.00;100414.07;1805106;78;21013;-91
2022/07/25 00:15:16;;;;;;;15.65;11.30;;;;;;;18.55;100.00;100407.30;1804449;79;21141;-91
2022/07/25 00:17:44;;;;;;;13.53;11.50;;;;;;;18.56;100.00;100412.90;1804524;79;21026;-92
2022/07/25 00:20:12;;;;;;;12.30;10.98;;;;;;;18.51;100.00;100414.73;1804703;79;21011;-92
2022/07/25 00:22:40;;;;;;;11.55;10.45;;;;;;;18.43;100.00;100414.77;1804584;79;21045;-92
2022/07/25 00:25:09;;;;;;;12.58;10.75;;;;;;;18.39;100.00;100411.66;1804009;79;20983;-91
2022/07/25 00:27:36;;;;;;;13.95;10.88;;;;;;;18.39;100.00;100412.14;1804706;79;21108;-92
2022/07/25 00:30:05;;;;;;;12.78;10.88;;;;;;;18.37;100.00;100412.31;1804627;79;21010;-91
2022/07/25 00:32:32;;;;;;;12.63;10.48;;;;;;;18.37;100.00;100412.83;1804685;79;21030;-92
2022/07/25 00:35:00;;;;;;;13.38;11.40;;;;;;;18.36;100.00;100408.55;1804599;79;21007;-92
2022/07/25 00:37:27;;;;;;;13.75;11.20;;;;;;;18.34;100.00;100419.75;1804847;79;21519;-92
2022/07/25 00:39:55;;;;;;;18.02;11.35;;;;;;;18.29;100.00;100419.78;1803979;79;20924;-92
2022/07/25 00:42:23;;;;;;;14.43;11.70;;;;;;;18.27;100.00;100415.64;1804477;79;21567;-92
2022/07/25 00:44:51;;;;;;;14.55;11.28;;;;;;;18.22;100.00;100413.55;1804282;79;20999;-92
2022/07/25 00:47:18;;;;;;;11.83;10.82;;;;;;;18.20;100.00;100416.84;1804909;79;21101;-92
2022/07/25 00:49:45;;;;;;;12.63;11.33;;;;;;;18.21;100.00;100414.54;1804390;79;21026;-92
2022/07/25 00:52:13;;;;;;;12.28;10.63;;;;;;;18.25;100.00;100410.55;1771951;78;21117;-92
2022/07/25 00:54:41;;;;;;;12.35;11.03;;;;;;;18.31;100.00;100412.20;1761381;79;21029;-92
2022/07/25 00:57:08;;;;;;;12.13;10.80;;;;;;;18.36;100.00;100413.30;1761635;80;21010;-92
2022/07/25 00:59:35;;;;;;;12.25;11.15;;;;;;;18.40;100.00;100408.03;1761815;79;21041;-91
2022/07/25 01:02:03;;;;;;;12.40;10.60;;;;;;;18.46;100.00;100409.16;1761613;79;21018;-93
2022/07/25 01:04:30;;;;;;;12.70;11.05;;;;;;;18.51;100.00;100414.73;1761744;79;21132;-91
2022/07/25 01:06:58;;;;;;;12.00;10.78;;;;;;;18.56;100.00;100412.39;1761418;79;21034;-92
2022/07/25 01:09:26;;;;;;;12.07;10.85;;;;;;;18.58;100.00;100410.41;1761654;79;20958;-91
2022/07/25 01:11:53;;;;;;;12.45;11.28;;;;;;;18.59;100.00;100412.53;1761597;80;20986;-91
2022/07/25 01:14:21;;;;;;;12.50;11.30;;;;;;;18.58;100.00;100407.77;1761642;79;21078;-91
2022/07/25 01:16:49;;;;;;;11.20;10.13;;;;;;;18.58;100.00;100405.13;1761289;79;21133;-91
2022/07/25 01:19:16;;;;;;;11.97;10.82;;;;;;;18.57;100.00;100404.00;1761210;79;21042;-91
2022/07/25 01:21:44;;;;;;;11.93;10.68;;;;;;;18.58;100.00;100399.05;1761472;79;20986;-92
2022/07/25 01:24:12;;;;;;;12.28;10.98;;;;;;;18.60;100.00;100401.00;1761431;79;21033;-91
2022/07/25 01:26:39;;;;;;;12.50;11.28;;;;;;;18.63;100.00;100402.49;1761950;79;21026;-91
2022/07/25 01:29:07;;;;;;;13.05;11.73;;;;;;;18.66;100.00;100400.81;1761701;80;21168;-92
2022/07/25 01:31:34;;;;;;;13.80;12.30;;;;;;;18.66;100.00;100401.64;1762323;79;21014;-92
2022/07/25 01:34:02;;;;;;;12.70;11.63;;;;;;;18.64;100.00;100398.83;1761619;79;21017;-93
2022/07/25 01:36:29;;;;;;;13.58;12.28;;;;;;;18.58;100.00;100401.18;1761694;79;21041;-93
2022/07/25 01:38:56;;;;;;;14.20;12.75;;;;;;;18.53;100.00;100395.61;1761444;79;21084;-93
2022/07/25 01:41:23;;;;;;;14.78;11.80;;;;;;;18.50;100.00;100399.09;1761612;79;21793;-92
2022/07/25 01:43:51;;;;;;;15.80;13.13;;;;;;;18.45;100.00;100394.34;1761278;79;21093;-92
2022/07/25 01:46:18;;;;;;;13.98;12.58;;;;;;;18.42;100.00;100398.15;1761690;81;21632;-92
2022/07/25 01:48:45;;;;;;;13.68;12.28;;;;;;;18.40;100.00;100397.97;1761542;79;21049;-92
2022/07/25 01:51:12;;;;;;;13.25;12.05;;;;;;;18.38;100.00;100398.66;1763874;80;21594;-92
2022/07/25 01:53:39;;;;;;;13.45;12.05;;;;;;;18.37;100.00;100399.14;1761455;80;21200;-91
2022/07/25 01:56:08;;;;;;;13.93;12.73;;;;;;;18.40;100.00;100401.92;1761400;79;21081;-91
2022/07/25 01:58:36;;;;;;;13.30;12.20;;;;;;;18.44;100.00;100400.60;1761564;79;21531;-91
2022/07/25 02:01:03;;;;;;;13.50;12.40;;;;;;;18.45;100.00;100401.73;1761711;79;21030;-92
2022/07/25 02:03:31;;;;;;;13.78;12.43;;;;;;;18.48;100.00;100403.20;1761702;79;21523;-92
2022/07/25 02:06:02;;;;;;;13.32;12.07;;;;;;;18.52;100.00;100408.47;1761526;81;21151;-92
2022/07/25 02:08:31;;;;;;;13.68;12.37;;;;;;;18.56;100.00;100397.89;1761467;79;21061;-91
2022/07/25 02:10:59;;;;;;;13.48;11.80;;;;;;;18.61;100.00;100390.78;1761489;79;20990;-91
2022/07/25 02:13:26;;;;;;;13.10;11.78;;;;;;;18.66;100.00;100394.22;1761519;80;21599;-93
2022/07/25 02:15:54;;;;;;;13.25;11.70;;;;;;;18.69;100.00;100388.61;1761596;79;20982;-92
2022/07/25 02:18:21;;;;;;;13.03;11.78;;;;;;;18.71;100.00;100399.77;1761756;80;21824;-91
2022/07/25 02:20:49;;;;;;;12.47;11.38;;;;;;;18.75;100.00;100401.09;1761762;80;20931;-91
2022/07/25 02:23:16;;;;;;;15.43;12.18;;;;;;;18.76;100.00;100396.95;1761473;79;21010;-91
2022/07/25 02:25:43;;;;;;;13.00;11.70;;;;;;;18.79;100.00;100400.23;1761664;79;20943;-92
2022/07/25 02:28:10;;;;;;;12.50;11.25;;;;;;;18.81;100.00;100396.94;1762079;79;21052;-92
2022/07/25 02:30:39;;;;;;;13.70;12.50;;;;;;;18.83;100.00;100398.40;1761390;79;21814;-91
2022/07/25 02:33:06;;;;;;;13.40;12.18;;;;;;;18.86;100.00;100410.41;1761375;79;20986;-91
2022/07/25 02:35:35;;;;;;;13.55;12.35;;;;;;;18.87;100.00;100418.66;1761655;79;21030;-92
2022/07/25 02:38:02;;;;;;;13.25;12.03;;;;;;;18.85;100.00;100417.52;1761591;79;21050;-92
2022/07/25 02:40:29;;;;;;;13.35;12.15;;;;;;;18.86;100.00;100416.52;1761862;79;21030;-91
2022/07/25 02:42:57;;;;;;;12.45;11.35;;;;;;;18.88;100.00;100415.83;1761751;79;21123;-91
2022/07/25 02:45:24;;;;;;;13.65;12.25;;;;;;;18.93;100.00;100411.89;1762058;80;20982;-92
2022/07/25 02:47:51;;;;;;;13.48;12.23;;;;;;;18.99;100.00;100423.06;1762013;79;21090;-92
2022/07/25 02:50:18;;;;;;;14.13;12.73;;;;;;;18.99;100.00;100415.95;1761949;80;21085;-93
2022/07/25 02:52:45;;;;;;;13.98;12.68;;;;;;;18.98;100.00;100414.33;1761989;80;21034;-92
2022/07/25 02:55:12;;;;;;;13.53;12.33;;;;;;;18.98;100.00;100413.50;1789982;80;21130;-91
2022/07/25 02:57:39;;;;;;;13.08;11.88;;;;;;;18.99;100.00;100409.36;1792046;78;21047;-91
2022/07/25 03:00:08;;;;;;;13.62;12.30;;;;;;;19.02;100.00;100406.37;1791888;79;21024;-91
2022/07/25 03:02:35;;;;;;;14.95;13.35;;;;;;;19.07;100.00;100404.53;1791958;78;21068;-92
2022/07/25 03:05:07;;;;;;;14.10;12.82;;;;;;;19.13;100.00;100397.73;1792057;78;21017;-93
2022/07/25 03:07:35;;;;;;;13.98;12.75;;;;;;;19.19;100.00;100396.50;1791496;79;21247;-91
2022/07/25 03:10:07;;;;;;;14.68;13.20;;;;;;;19.26;100.00;100397.14;1791801;78;21415;-91
2022/07/25 03:12:35;;;;;;;15.43;14.00;;;;;;;19.29;100.00;100388.84;1792365;78;21044;-91
2022/07/25 03:15:04;;;;;;;15.98;13.75;;;;;;;19.32;100.00;100383.22;1792147;78;21041;-91
2022/07/25 03:17:31;;;;;;;15.72;14.33;;;;;;;19.33;100.00;100387.50;1791995;78;21498;-92
2022/07/25 03:19:59;;;;;;;14.15;12.95;;;;;;;19.36;100.00;100387.13;1792122;78;21204;-91
2022/07/25 03:22:26;;;;;;;15.58;13.98;;;;;;;19.38;100.00;100383.82;1792157;78;21577;-91
2022/07/25 03:24:53;;;;;;;14.75;13.45;;;;;;;19.41;100.00;100389.23;1791983;78;20993;-91
2022/07/25 03:27:20;;;;;;;16.25;14.78;;;;;;;19.45;100.00;100386.57;1791819;79;21063;-92
2022/07/25 03:29:48;;;;;;;15.50;14.13;;;;;;;19.50;100.00;100386.84;1791923;78;21557;-91
2022/07/25 03:32:15;;;;;;;17.17;15.10;;;;;;;19.55;100.00;100387.95;1792080;78;21103;-90
2022/07/25 03:34:43;;;;;;;16.90;15.20;;;;;;;19.60;100.00;100390.53;1791971;80;21478;-90
2022/07/25 03:37:10;;;;;;;17.42;15.83;;;;;;;19.65;100.00;100389.52;1792052;78;20997;-91
2022/07/25 03:39:37;;;;;;;16.67;15.28;;;;;;;19.70;100.00;100385.34;1792164;78;21482;-91
2022/07/25 03:42:04;;;;;;;16.77;15.08;;;;;;;19.76;100.00;100382.96;1792104;78;20993;-92
2022/07/25 03:44:31;;;;;;;19.30;15.23;;;;;;;19.79;100.00;100383.93;1791865;78;21079;-90
2022/07/25 03:46:58;;;;;;;18.00;16.35;;;;;;;19.82;100.00;100385.70;1791899;78;21539;-91
2022/07/25 03:49:26;;;;;;;18.52;16.67;;;;;;;19.86;100.00;100385.67;1791371;78;21000;-91
2022/07/25 03:51:53;;;;;;;18.15;16.55;;;;;;;19.91;100.00;100383.81;1791462;80;20948;-91
2022/07/25 03:54:20;;;;;;;18.07;16.35;;;;;;;19.97;100.00;100387.55;1782680;79;21115;-89
2022/07/25 03:56:50;;;;;;;19.20;17.40;;;;;;;20.01;100.00;100388.81;1769402;79;21204;-90
2022/07/25 03:59:20;;;;;;;18.15;16.35;;;;;;;20.07;100.00;100390.72;1769644;81;21558;-90
2022/07/25 04:01:49;;;;;;;19.00;17.02;;;;;;;20.13;100.00;100384.72;1769745;81;21009;-90
2022/07/25 04:04:17;;;;;;;19.92;17.95;;;;;;;20.21;100.00;100399.64;1769602;80;21087;-91
2022/07/25 04:06:45;;;;;;;18.75;16.80;;;;;;;20.27;100.00;100395.45;1769656;80;21013;-91
2022/07/25 04:09:14;;;;;;;19.57;17.67;;;;;;;20.32;100.00;100395.70;1769547;80;21153;-91
2022/07/25 04:11:43;;;;;;;18.53;16.10;;;;;;;20.38;100.00;100408.21;1768105;81;21205;-91
2022/07/25 04:14:10;;;;;;;17.57;15.93;;;;;;;20.42;100.00;100394.11;1762685;80;21011;-90
2022/07/25 04:16:37;;;;;;;17.57;15.68;;;;;;;20.47;100.00;100400.45;1769876;81;21003;-90
2022/07/25 04:19:05;;;;;;;18.60;16.75;;;;;;;20.53;100.00;100400.73;1769757;81;21077;-90
2022/07/25 04:21:32;;;;;;;19.45;17.48;;;;;;;20.58;100.00;100399.67;1770145;81;21974;-90
2022/07/25 04:24:00;;;;;;;22.50;18.15;;;;;;;20.63;100.00;100399.95;1769842;81;20940;-90
2022/07/25 04:26:27;;;;;;;20.32;18.00;;;;;;;20.65;100.00;100397.42;1769651;80;21073;-91
2022/07/25 04:28:56;;;;;;;18.37;16.57;;;;;;;20.69;100.00;100395.70;1755276;81;20998;-90
2022/07/25 04:31:24;;;;;;;16.65;15.00;;;;;;;20.67;100.00;100398.55;1753794;81;21006;-92
2022/07/25 04:33:51;;;;;;;17.95;15.90;;;;;;;20.65;100.00;100398.75;1741907;81;21137;-91
2022/07/25 04:36:19;;;;;;;16.75;15.15;;;;;;;20.63;100.00;100404.72;1740507;81;21022;-90
2022/07/25 04:38:46;;;;;;;16.80;15.15;;;;;;;20.62;100.00;100400.95;1744172;81;21046;-90
2022/07/25 04:41:13;;;;;;;16.73;15.13;;;;;;;20.58;100.00;100397.02;1739076;82;20998;-91
2022/07/25 04:43:40;;;;;;;15.60;14.00;;;;;;;20.58;100.00;100399.19;1753846;79;21094;-91
2022/07/25 04:46:08;;;;;;;15.23;13.45;;;;;;;20.61;100.00;100395.34;1746581;79;21787;-91
2022/07/25 04:48:35;;;;;;;15.58;13.98;;;;;;;20.69;100.00;100399.68;1758901;81;21022;-91
2022/07/25 04:51:03;;;;;;;17.42;14.55;;;;;;;20.76;100.00;100400.11;1767196;81;21041;-91
2022/07/25 04:53:30;;;;;;;15.60;14.00;;;;;;;20.87;100.00;100397.98;1756791;79;21564;-93
2022/07/25 04:55:57;;;;;;;15.55;14.10;;;;;;;20.94;100.00;100393.57;1793241;79;22185;-93
2022/07/25 04:58:24;;;;;;;15.65;14.05;;;;;;;21.01;100.00;100393.61;1795947;78;21112;-93
2022/07/25 05:00:53;;;;;;;18.98;14.80;;;;;;;21.09;100.00;100392.16;1796600;78;21088;-94
2022/07/25 05:03:20;;;;;;;17.02;15.38;;;;;;;21.18;100.00;100387.56;1796228;79;20991;-93
2022/07/25 05:05:50;;;;;;;17.27;15.38;;;;;;;21.26;100.00;100386.11;1796208;79;21015;-93
2022/07/25 05:08:17;;;;;;;17.07;15.32;;;;;;;21.36;100.00;100375.17;1789443;79;21040;-91
2022/07/25 05:10:45;;;;;;;16.65;14.83;;;;;;;21.46;100.00;100380.13;1787144;79;21184;-91
2022/07/25 05:13:12;;;;;;;17.35;15.60;;;;;;;21.53;100.00;100377.02;1785741;79;22256;-93
2022/07/25 05:15:39;;;;;;;15.80;14.30;;;;;;;21.60;100.00;100377.91;1782964;79;21541;-91
2022/07/25 05:18:06;;;;;;;15.00;13.60;;;;;;;21.65;100.00;100372.03;1789882;79;20987;-91
2022/07/25 05:20:33;;;;;;;15.70;14.10;;;;;;;21.69;100.00;100377.27;1798495;78;20990;-92
2022/07/25 05:23:01;;;;;;;16.62;14.80;;;;;;;21.68;100.00;100377.75;1801334;79;21593;-92
2022/07/25 05:25:28;;;;;;;15.15;13.72;;;;;;;21.67;100.00;100377.44;1796915;79;21050;-91
2022/07/25 05:27:57;;;;;;;16.42;14.93;;;;;;;21.66;100.00;100375.83;1801554;79;21010;-93
2022/07/25 05:30:25;;;;;;;16.97;15.45;;;;;;;21.64;100.00;100371.22;1800096;79;21031;-90
2022/07/25 05:32:53;;;;;;;16.20;14.75;;;;;;;21.60;100.00;100367.31;1801280;79;21465;-90
2022/07/25 05:35:23;;;;;;;17.02;15.35;;;;;;;21.56;100.00;100362.07;1797114;79;21018;-92
2022/07/25 05:37:53;;;;;;;17.32;15.83;;;;;;;21.54;100.00;100358.30;1801400;79;21081;-90
2022/07/25 05:40:20;;;;;;;16.95;15.28;;;;;;;21.54;100.00;100353.49;1800065;78;20990;-90
2022/07/25 05:42:47;;;;;;;18.50;15.80;;;;;;;21.55;100.00;100355.94;1800965;79;20964;-90
2022/07/25 05:45:14;;;;;;;17.55;15.72;;;;;;;21.56;100.00;100344.86;1802570;79;21026;-91
2022/07/25 05:47:41;;;;;;;16.87;15.10;;;;;;;21.56;100.00;100351.47;1803161;79;21203;-91
2022/07/25 05:50:10;;;;;;;16.65;14.93;;;;;;;21.55;100.00;100350.64;1802161;79;21406;-90
2022/07/25 05:52:37;;;;;;;18.30;16.70;;;;;;;21.58;100.00;100356.11;1797604;79;21003;-92
2022/07/25 05:55:06;;;;;;;16.62;15.32;;;;;;;21.62;100.00;100351.23;1797437;79;20991;-92
2022/07/25 05:57:35;;;;;;;15.98;14.63;;;;;;;21.62;100.00;100350.72;1796206;79;21010;-92
2022/07/25 06:00:05;;;;;;;16.77;15.32;;;;;;;21.62;100.00;100348.07;1801808;79;21739;-91
2022/07/25 06:02:33;;;;;;;15.73;14.43;;;;;;;21.60;100.00;100351.41;1787360;79;21073;-90
2022/07/25 06:05:00;;;;;;;17.42;15.95;;;;;;;21.60;100.00;100348.77;1796058;79;21213;-90
2022/07/25 06:07:27;;;;;;;19.27;16.30;;;;;;;21.57;100.00;100346.49;1796953;77;21544;-90
2022/07/25 06:09:56;;;;;;;17.77;16.17;;;;;;;21.59;100.00;100341.86;1802406;79;21029;-91
2022/07/25 06:12:23;;;;;;;17.73;15.83;;;;;;;21.61;100.00;100340.33;1802098;79;21121;-90
2022/07/25 06:14:52;;;;;;;17.73;16.07;;;;;;;21.66;100.00;100342.71;1801915;79;21423;-91
2022/07/25 06:17:20;;;;;;;18.48;16.57;;;;;;;21.70;100.00;100342.62;1799509;79;21094;-91
2022/07/25 06:19:53;;;;;;;18.17;16.48;;;;;;;21.75;100.00;100335.41;1798303;79;20971;-90
2022/07/25 06:22:21;;;;;;;18.52;16.60;;;;;;;21.79;100.00;100334.02;1796957;79;20975;-90
2022/07/25 06:24:49;;;;;;;18.20;16.67;;;;;;;21.84;100.00;100332.91;1797356;79;21957;-91
2022/07/25 06:27:18;;;;;;;18.00;16.27;;;;;;;21.89;100.00;100333.13;1799383;79;21022;-90
2022/07/25 06:29:45;;;;;;;19.05;17.35;;;;;;;21.93;100.00;100332.22;1799641;79;21503;-91
2022/07/25 06:32:13;;;;;;;19.90;18.25;;;;;;;22.01;100.00;100336.55;1800019;79;21100;-90
2022/07/25 06:34:41;;;;;;;19.20;17.27;;;;;;;22.05;100.00;100326.69;1799846;79;21037;-91
2022/07/25 06:37:08;;;;;;;18.00;16.40;;;;;;;22.11;100.00;100323.75;1799722;79;21105;-92
2022/07/25 06:39:35;;;;;;;20.85;18.95;;;;;;;22.16;100.00;100323.12;1800095;79;21968;-92
2022/07/25 06:42:03;;;;;;;19.15;17.45;;;;;;;22.21;100.00;100318.06;1799823;79;21140;-91
2022/07/25 06:44:34;;;;;;;19.80;18.17;;;;;;;22.27;100.00;100315.13;1795255;79;21006;-92
2022/07/25 06:47:04;;;;;;;21.62;19.60;;;;;;;22.27;100.00;100312.48;1799935;79;21034;-91
2022/07/25 06:49:31;;;;;;;23.27;19.62;;;;;;;22.29;100.00;100313.08;1813529;78;21139;-91
2022/07/25 06:51:58;;;;;;;20.17;18.27;;;;;;;22.29;100.00;100313.91;1816449;79;21060;-90
2022/07/25 06:54:26;;;;;;;20.80;18.87;;;;;;;22.33;100.00;100313.00;1816160;78;21523;-91
2022/07/25 06:56:54;;;;;;;19.60;17.67;;;;;;;22.36;100.00;100317.39;1807846;79;21583;-90
2022/07/25 06:59:21;;;;;;;20.88;18.98;;;;;;;22.41;100.00;100318.15;1807450;79;21013;-90
2022/07/25 07:01:48;;;;;;;19.80;18.17;;;;;;;22.47;100.00;100324.49;1803525;79;21841;-89
2022/07/25 07:04:16;;;;;;;21.12;19.23;;;;;;;22.52;100.00;100322.04;1733218;82;21002;-91
2022/07/25 07:06:44;;;;;;;21.90;19.70;;;;;;;22.56;100.00;100317.95;1732399;82;21023;-89
2022/07/25 07:09:12;;;;;;;21.20;19.40;;;;;;;22.58;100.00;100311.94;1739496;81;21043;-82
2022/07/25 07:11:41;;;;;;;20.92;19.02;;;;;;;22.60;100.00;100312.56;1757762;80;21123;-82
2022/07/25 07:14:09;;;;;;;20.13;18.33;;;;;;;22.63;100.00;100306.86;1765295;80;21038;-82
2022/07/25 07:16:40;;;;;;;20.97;18.92;;;;;;;22.68;100.00;100312.86;1763661;80;21034;-83
2022/07/25 07:19:09;;;;;;;21.62;19.45;;;;;;;22.73;100.00;100314.41;1758112;81;20995;-82
2022/07/25 07:21:37;;;;;;;20.40;18.60;;;;;;;22.78;100.00;100309.83;1759837;80;21023;-82
2022/07/25 07:24:05;;;;;;;20.43;18.52;;;;;;;22.84;100.00;100303.70;1743893;80;21007;-83
2022/07/25 07:26:33;;;;;;;21.20;18.45;;;;;;;22.88;100.00;100300.92;1760036;81;21795;-82
2022/07/25 07:29:02;;;;;;;21.15;18.92;;;;;;;22.89;100.00;100307.87;1758623;81;21129;-82
2022/07/25 07:31:29;;;;;;;21.05;18.85;;;;;;;22.91;100.00;100314.33;1758806;80;21077;-82
2022/07/25 07:33:58;;;;;;;152.40;104.12;;;;;;;22.95;100.00;100309.73;1759997;81;21070;-82
2022/07/25 07:36:26;;;;;;;130.47;95.38;;;;;;;22.95;100.00;100320.36;1754964;81;21101;-83
2022/07/25 07:38:53;;;;;;;215.05;119.13;;;;;;;22.93;100.00;100328.19;1758720;80;21191;-82
2022/07/25 07:41:21;;;;;;;92.80;53.52;;;;;;;22.85;100.00;100330.03;1755977;80;20940;-82
2022/07/25 07:43:49;;;;;;;60.48;40.15;;;;;;;22.80;100.00;100331.66;1768995;81;20995;-82
2022/07/25 07:46:16;;;;;;;29.85;25.92;;;;;;;22.74;100.00;100329.33;1769254;80;21429;-82
2022/07/25 07:48:44;;;;;;;24.12;21.85;;;;;;;22.69;100.00;100332.58;1769323;81;21086;-82
2022/07/25 07:51:11;;;;;;;23.47;20.97;;;;;;;22.58;100.00;100334.49;1766868;80;21158;-82
2022/07/25 07:56:24;;;;;;;22.58;20.17;;;;;;;22.34;100.00;100328.70;1766167;80;21497;-82
2022/07/25 07:58:52;;;;;;;22.70;20.48;;;;;;;22.25;100.00;100330.42;1783852;80;21026;-82
2022/07/25 08:01:19;;;;;;;22.73;20.75;;;;;;;22.18;100.00;100333.03;1781482;80;21061;-82
2022/07/25 08:03:46;;;;;;;23.02;20.90;;;;;;;22.10;100.00;100330.06;1752441;81;21773;-82
2022/07/25 08:06:13;;;;;;;22.60;20.43;;;;;;;22.05;100.00;100329.34;1788848;80;21038;-82
2022/07/25 08:08:42;;;;;;;23.47;20.97;;;;;;;22.01;100.00;100328.08;1755373;81;21025;-82
2022/07/25 08:11:10;;;;;;;23.70;21.37;;;;;;;22.00;100.00;100326.96;1788372;80;21496;-82
2022/07/25 08:13:38;;;;;;;23.92;21.48;;;;;;;21.96;100.00;100334.49;1757197;81;21077;-82
2022/07/25 08:16:06;;;;;;;22.17;20.05;;;;;;;21.94;100.00;100334.38;1788035;80;21110;-82
2022/07/25 08:18:33;;;;;;;23.67;21.23;;;;;;;21.96;100.00;100340.28;1788345;80;21505;-83
2022/07/25 08:21:05;;;;;;;23.52;21.10;;;;;;;21.96;100.00;100344.26;1756865;81;20971;-82
2022/07/25 08:23:34;;;;;;;23.95;21.95;;;;;;;21.95;100.00;100342.13;1788403;80;21084;-82
2022/07/25 08:26:03;;;;;;;25.15;22.87;;;;;;;21.94;100.00;100343.14;1788478;80;21610;-83
2022/07/25 08:28:31;;;;;;;26.12;23.83;;;;;;;22.00;100.00;100334.39;1788482;80;21154;-82
2022/07/25 08:30:58;;;;;;;23.47;21.48;;;;;;;22.10;100.00;100338.52;1784347;80;21108;-83
2022/07/25 08:33:27;;;;;;;24.27;22.27;;;;;;;22.22;100.00;100339.59;1749720;81;21022;-82
2022/07/25 08:35:57;;;;;;;25.37;22.67;;;;;;;22.30;100.00;100331.45;1786345;80;21022;-83
2022/07/25 08:38:26;;;;;;;25.17;22.77;;;;;;;22.37;100.00;100334.11;1743979;81;21491;-83
2022/07/25 08:40:55;;;;;;;25.05;22.37;;;;;;;22.43;100.00;100336.02;1750956;82;21208;-87
2022/07/25 08:43:22;;;;;;;23.98;21.95;;;;;;;22.47;100.00;100336.43;1751239;80;21566;-92
2022/07/25 08:45:54;;;;;;;24.52;22.30;;;;;;;22.49;100.00;100338.34;1745031;82;20998;-92
2022/07/25 08:48:24;;;;;;;23.25;21.17;;;;;;;22.50;100.00;100338.66;1737843;82;21042;-88
2022/07/25 08:50:55;;;;;;;24.25;22.00;;;;;;;22.54;100.00;100339.91;1738432;82;21050;-88
2022/07/25 08:53:23;;;;;;;;;;;;;;;22.59;100.00;100331.34;1727886;81;21138;-89
2022/07/25 08:55:50;;;;;;;26.62;24.15;;;;;;;22.66;100.00;100339.61;1751991;81;20475;-89
2022/07/25 08:58:18;;;;;;;26.20;23.45;;;;;;;22.71;100.00;100334.22;1754080;80;20956;-89
2022/07/25 09:00:45;;;;;;;27.52;24.92;;;;;;;22.72;100.00;100338.48;1807756;79;21062;-90
2022/07/25 09:03:12;;;;;;;26.17;23.77;;;;;;;22.70;100.00;100336.04;1800142;79;20998;-89
2022/07/25 09:05:41;;;;;;;25.05;22.87;;;;;;;22.69;100.00;100334.41;1806257;79;21820;-89
2022/07/25 09:08:16;;;;;;;24.02;21.75;;;;;;;22.67;100.00;100331.16;1809026;79;21504;-89
2022/07/25 09:10:52;;;;;;;22.45;20.40;;;;;;;22.68;100.00;100331.44;1811403;78;21018;-89
2022/07/25 09:13:22;;;;;;;22.80;20.80;;;;;;;22.72;100.00;100330.52;1807066;79;20982;-89
2022/07/25 09:15:55;;;;;;;21.25;19.45;;;;;;;22.76;100.00;100329.92;1814146;78;21017;-89
2022/07/25 09:18:26;;;;;;;19.67;17.87;;;;;;;22.80;100.00;100329.83;1815416;78;21206;-89
2022/07/25 09:20:58;;;;;;;18.82;17.23;;;;;;;22.88;100.00;100324.02;1793233;78;21024;-89
2022/07/25 09:23:36;;;;;;;19.65;17.85;;;;;;;22.95;100.00;100326.16;1802834;79;21543;-88
2022/07/25 09:26:14;;;;;;;19.45;17.65;;;;;;;23.04;100.00;100324.09;1814338;78;20986;-89
2022/07/25 09:28:48;;;;;;;16.40;15.10;;;;;;;23.11;100.00;100319.63;1801734;79;21547;-89
2022/07/25 09:31:20;;;;;;;16.75;15.20;;;;;;;23.23;100.00;100314.54;1803728;79;21217;-89
2022/07/25 09:33:50;;;;;;;;;;;;;;;23.43;100.00;100311.33;1810318;78;21046;-89
2022/07/25 09:36:18;;;;;;;17.10;15.70;;;;;;;23.63;100.00;100308.61;1807070;79;20216;-90
2022/07/25 09:39:04;;;;;;;17.32;15.72;;;;;;;23.86;100.00;100313.95;1810171;79;20990;-89
2022/07/25 09:41:35;;;;;;;;;;;;;;;24.09;100.00;100308.16;1813034;79;21029;-89
2022/07/25 09:44:05;;;;;;;16.65;15.25;;;;;;;24.32;100.00;100312.62;1807013;79;21102;-91
2022/07/25 09:46:34;;;;;;;18.73;17.13;;;;;;;24.49;100.00;100313.74;1804046;79;21017;-90
2022/07/25 09:49:03;;;;;;;16.25;14.90;;;;;;;24.61;100.00;100307.73;1814260;79;21061;-89
2022/07/25 09:51:31;;;;;;;17.30;15.68;;;;;;;24.69;100.00;100317.63;1814057;79;21433;-91
2022/07/25 09:54:03;;;;;;;17.92;16.42;;;;;;;24.72;100.00;100309.22;1800434;78;21565;-89
2022/07/25 09:56:31;;;;;;;;;;;;;;;24.73;100.00;100308.69;1810508;78;21217;-90
2022/07/25 09:59:00;;;;;;;17.45;15.93;;;;;;;24.73;100.00;100306.03;1777706;80;20135;-89
2022/07/25 10:01:43;;;;;;;16.70;15.35;;;;;;;24.76;100.00;100303.47;1807788;79;21563;-89
2022/07/25 10:04:23;;;;;;;;;;;;;;;24.78;100.00;100306.21;1791541;79;21045;-88
2022/07/25 10:06:57;;;;;;;15.50;13.98;;;;;;;24.91;100.00;100292.48;1779743;79;20466;-89
2022/07/25 10:09:24;;;;;;;14.15;12.98;;;;;;;25.07;100.00;100292.45;1775688;79;21117;-89
2022/07/25 10:12:12;;;;;;;13.80;12.35;;;;;;;25.32;100.00;100293.73;1799337;79;21027;-88
2022/07/25 10:14:41;;;;;;;13.38;12.18;;;;;;;25.59;100.00;100286.81;1780819;79;20993;-90
2022/07/25 10:17:15;;;;;;;13.08;11.88;;;;;;;25.89;100.00;100285.49;1784991;79;21018;-88
2022/07/25 10:19:46;;;;;;;13.25;12.18;;;;;;;26.16;100.00;100276.38;1784930;79;21542;-88
2022/07/25 10:22:14;;;;;;;12.60;11.38;;;;;;;26.45;100.00;100270.67;1788969;79;21157;-88
2022/07/25 10:24:47;;;;;;;12.50;11.50;;;;;;;26.73;100.00;100274.02;1803616;79;21049;-87
2022/07/25 10:27:23;;;;;;;12.58;11.57;;;;;;;26.98;100.00;100259.66;1771352;79;21069;-89
2022/07/25 10:29:53;;;;;;;12.93;11.78;;;;;;;27.27;100.00;100257.09;1796712;78;21022;-89
2022/07/25 10:32:24;;;;;;;12.90;11.73;;;;;;;27.54;100.00;100255.23;1794421;79;21032;-88
2022/07/25 10:34:52;;;;;;;;;;;;;;;27.75;100.00;100251.63;1804801;79;21231;-89
2022/07/25 10:37:28;;;;;;;10.95;10.15;;;;;;;27.84;100.00;100259.03;1793232;79;20135;-88
2022/07/25 10:39:55;;;;;;;10.65;9.75;;;;;;;27.73;100.00;100252.39;1775624;79;21394;-89
2022/07/25 10:42:24;;;;;;;13.05;11.88;;;;;;;27.35;100.00;100251.38;1803557;78;21071;-88
2022/07/25 10:44:56;;;;;;;15.63;14.25;;;;;;;26.88;100.00;100250.91;1787894;79;21416;-89
2022/07/25 10:47:26;;;;;;;13.95;12.75;;;;;;;26.43;100.00;100256.77;1789595;79;21147;-89
2022/07/25 10:50:02;;;;;;;15.80;14.07;;;;;;;26.07;100.00;100248.65;1799573;79;21000;-90
2022/07/25 10:52:30;;;;;;;14.68;13.25;;;;;;;25.88;100.00;100247.06;1775193;80;21049;-90
2022/07/25 10:55:00;;;;;;;15.30;14.00;;;;;;;25.89;100.00;100243.36;1798324;79;21474;-87
2022/07/25 10:57:28;;;;;;;15.63;14.13;;;;;;;25.93;100.00;100241.85;1804411;78;21420;-88
2022/07/25 11:00:05;;;;;;;13.55;12.30;;;;;;;25.92;100.00;100244.25;1805561;78;21164;-88
2022/07/25 11:02:33;;;;;;;13.93;12.70;;;;;;;25.92;100.00;100246.92;1812877;78;21018;-88
2022/07/25 11:05:02;;;;;;;13.75;12.50;;;;;;;25.93;100.00;100242.69;1809750;78;21036;-88
2022/07/25 11:07:39;;;;;;;13.75;12.47;;;;;;;26.05;100.00;100242.72;1807988;78;20982;-88
2022/07/25 11:10:03;;;;;;;12.63;11.63;;;;;;;26.27;100.00;100235.55;1804635;78;21016;-88